Time;durP1;ratioP1;P1;durP2;ratioP2;P2;SDS_P1;SDS_P2;PMS_P1;PMS_P2;Temp;Humidity;BMP_temperature;BMP_pressure;BME280_temperature;BME280_humidity;BME280_pressure;Samples;Min_cycle;Max_cycle;Signal;HPM_P1;HPM_P2
2022/07/03 00:01:47;;;;;;;;;;;21.90;72.50;;;;;;5052707;28;906;-65
2022/07/03 00:04:13;;;;;;;;;;;21.90;72.50;;;;;;5052438;28;1906;-65
2022/07/03 00:06:38;;;;;;;;;;;21.90;72.50;;;;;;5052788;28;796;-67
2022/07/03 00:09:04;;;;;;;;;;;21.90;72.50;;;;;;5052839;28;866;-67
2022/07/03 00:11:30;;;;;;;;;;;21.90;72.50;;;;;;5052507;28;937;-66
2022/07/03 00:13:55;;;;;;;;;;;21.90;72.50;;;;;;5034511;28;2493;-66
2022/07/03 00:16:20;;;;;;;;;;;21.90;72.50;;;;;;5038564;28;1195;-68
2022/07/03 00:18:46;;;;;;;;;;;21.90;72.50;;;;;;5031458;28;1118;-66
2022/07/03 00:21:11;;;;;;;;;;;21.90;72.50;;;;;;5032677;28;1010;-67
2022/07/03 00:23:47;;;;;;;;;;;21.90;72.50;;;;;;5032498;28;1958;-67
2022/07/03 00:26:13;;;;;;;;;;;21.90;72.50;;;;;;5045293;28;1195;-67
2022/07/03 00:28:38;;;;;;;;;;;21.90;72.50;;;;;;5051453;28;1041;-67
2022/07/03 00:31:04;;;;;;;;;;;21.90;72.50;;;;;;5051452;28;851;-67
2022/07/03 00:33:29;;;;;;;;;;;21.90;72.50;;;;;;5051341;28;925;-66
2022/07/03 00:35:55;;;;;;;;;;;21.90;72.50;;;;;;5051004;28;1382;-66
2022/07/03 00:38:23;;;;;;;;;;;21.90;72.50;;;;;;5053415;28;898;-67
2022/07/03 00:40:49;;;;;;;;;;;21.90;72.50;;;;;;5055113;28;879;-68
2022/07/03 00:43:15;;;;;;;;;;;21.90;72.50;;;;;;5056211;28;850;-68
2022/07/03 00:45:40;;;;;;;;;;;21.90;72.50;;;;;;5055753;28;1977;-68
2022/07/03 00:48:06;;;;;;;;;;;21.90;72.50;;;;;;5054782;28;776;-68
2022/07/03 00:50:35;;;;;;;;;;;21.90;72.50;;;;;;5054936;28;787;-68
2022/07/03 00:53:00;;;;;;;;;;;21.90;72.50;;;;;;5055833;28;1061;-69
2022/07/03 00:55:26;;;;;;;;;;;21.90;72.50;;;;;;5061590;22;1984;-72
2022/07/03 00:57:52;;;;;;;;;;;21.90;72.50;;;;;;5032400;28;1173;-72
2022/07/03 01:00:17;;;;;;;;;;;21.90;72.50;;;;;;5018347;28;943;-72
2022/07/03 01:02:55;;;;;;;;;;;21.90;72.50;;;;;;5018077;28;1263;-72
2022/07/03 01:05:37;;;;;;;;;;;21.90;72.50;;;;;;5023810;28;1906;-72
2022/07/03 01:08:16;;;;;;;;;;;21.90;72.50;;;;;;5034479;28;994;-70
2022/07/03 01:10:45;;;;;;;;;;;21.90;72.50;;;;;;5034732;28;895;-70
2022/07/03 01:13:14;;;;;;;;;;;21.90;72.50;;;;;;5035779;28;941;-70
2022/07/03 01:16:06;;;;;;;;;;;21.90;72.50;;;;;;5042457;28;1282;-70
2022/07/03 01:18:47;;;;;;;;;;;21.90;72.50;;;;;;5049788;28;1205;-70
2022/07/03 01:21:15;;;;;;;;;;;21.90;72.50;;;;;;5034319;28;918;-70
2022/07/03 01:23:41;;;;;;;;;;;21.90;72.50;;;;;;5034215;28;1890;-70
2022/07/03 01:26:06;;;;;;;;;;;21.90;72.50;;;;;;5047224;28;1337;-70
2022/07/03 01:28:32;;;;;;;;;;;21.90;72.50;;;;;;5054289;28;769;-70
2022/07/03 01:30:57;;;;;;;;;;;21.90;72.50;;;;;;5055219;28;1024;-70
2022/07/03 01:33:24;;;;;;;;;;;21.90;72.50;;;;;;5053863;28;1351;-69
2022/07/03 01:35:49;;;;;;;;;;;21.90;72.50;;;;;;5054926;28;1211;-69
2022/07/03 01:38:14;;;;;;;;;;;21.90;72.50;;;;;;5055176;28;985;-69
2022/07/03 01:40:41;;;;;;;;;;;21.90;72.50;;;;;;5054002;28;862;-69
2022/07/03 01:43:07;;;;;;;;;;;21.90;72.50;;;;;;5053709;28;878;-70
2022/07/03 01:45:34;;;;;;;;;;;21.90;72.50;;;;;;5053478;28;1902;-71
2022/07/03 01:48:00;;;;;;;;;;;21.90;72.50;;;;;;5054761;28;918;-73
2022/07/03 01:50:25;;;;;;;;;;;21.90;72.50;;;;;;5054383;28;1025;-71
2022/07/03 01:52:51;;;;;;;;;;;21.90;72.50;;;;;;5053684;28;2180;-71
2022/07/03 01:55:16;;;;;;;;;;;21.90;72.50;;;;;;5053145;28;1181;-72
2022/07/03 01:57:42;;;;;;;;;;;21.90;72.50;;;;;;5053422;28;878;-71
2022/07/03 02:00:07;;;;;;;;;;;21.90;72.50;;;;;;5055410;28;725;-71
2022/07/03 02:02:33;;;;;;;;;;;21.90;72.50;;;;;;5053625;28;886;-70
2022/07/03 02:05:00;;;;;;;;;;;21.90;72.50;;;;;;5054468;28;1906;-72
2022/07/03 02:07:44;;;;;;;;;;;21.90;72.50;;;;;;5056172;28;890;-70
2022/07/03 02:10:09;;;;;;;;;;;21.90;72.40;;;;;;5054366;28;883;-70
2022/07/03 02:12:47;;;;;;;;;;;21.90;72.50;;;;;;5054444;28;815;-70
2022/07/03 02:15:12;;;;;;;;;;;21.90;72.50;;;;;;5049659;28;1346;-69
2022/07/03 02:17:38;;;;;;;;;;;21.90;72.50;;;;;;5033244;28;815;-71
2022/07/03 02:20:07;;;;;;;;;;;21.90;72.50;;;;;;5034390;28;1118;-71
2022/07/03 02:22:35;;;;;;;;;;;21.90;72.50;;;;;;5033134;28;899;-70
2022/07/03 02:25:05;;;;;;;;;;;21.90;72.40;;;;;;5038152;28;1961;-70
2022/07/03 02:27:40;;;;;;;;;;;21.90;72.40;;;;;;5054093;28;1241;-71
2022/07/03 02:30:06;;;;;;;;;;;21.90;72.50;;;;;;5054204;28;831;-71
2022/07/03 02:32:38;;;;;;;;;;;21.80;72.40;;;;;;5054006;28;831;-73
2022/07/03 02:35:04;;;;;;;;;;;21.90;72.50;;;;;;5052402;28;1203;-71
2022/07/03 02:37:32;;;;;;;;;;;21.80;72.40;;;;;;5052595;28;2210;-72
2022/07/03 02:40:00;;;;;;;;;;;21.90;72.50;;;;;;5052765;28;994;-71
2022/07/03 02:42:34;;;;;;;;;;;21.90;72.50;;;;;;5052789;28;808;-70
2022/07/03 02:45:01;;;;;;;;;;;21.90;72.50;;;;;;5053902;28;1901;-70
2022/07/03 02:47:28;;;;;;;;;;;21.90;72.50;;;;;;5052439;28;1054;-71
2022/07/03 02:50:08;;;;;;;;;;;21.90;72.40;;;;;;5052471;28;905;-71
2022/07/03 02:52:44;;;;;;;;;;;21.90;72.40;;;;;;5052648;28;906;-71
2022/07/03 02:55:16;;;;;;;;;;;21.90;72.40;;;;;;5052191;28;1322;-71
2022/07/03 02:57:41;;;;;;;;;;;21.90;72.50;;;;;;5053718;28;862;-71
2022/07/03 03:00:08;;;;;;;;;;;21.90;72.50;;;;;;5053597;28;783;-71
2022/07/03 03:02:49;;;;;;;;;;;21.90;72.40;;;;;;5051446;28;803;-71
2022/07/03 03:05:14;;;;;;;;;;;21.90;72.50;;;;;;5053107;28;1980;-71
2022/07/03 03:07:53;;;;;;;;;;;21.90;72.50;;;;;;5053486;28;827;-71
2022/07/03 03:10:18;;;;;;;;;;;21.90;72.50;;;;;;5052315;28;811;-71
2022/07/03 03:12:44;;;;;;;;;;;21.90;72.40;;;;;;5051915;28;815;-71
2022/07/03 03:15:11;;;;;;;;;;;21.90;72.50;;;;;;5048921;28;1278;-71
2022/07/03 03:17:39;;;;;;;;;;;21.90;72.50;;;;;;5033374;28;1073;-71
2022/07/03 03:20:05;;;;;;;;;;;21.90;72.50;;;;;;5033370;28;1106;-71
2022/07/03 03:22:31;;;;;;;;;;;21.90;72.60;;;;;;5032050;28;916;-71
2022/07/03 03:24:56;;;;;;;;;;;21.90;72.40;;;;;;5036628;28;1965;-71
2022/07/03 03:27:21;;;;;;;;;;;21.90;72.40;;;;;;5051787;28;891;-71
2022/07/03 03:29:47;;;;;;;;;;;21.90;72.50;;;;;;5053145;28;719;-71
2022/07/03 03:32:12;;;;;;;;;;;21.90;72.50;;;;;;5051843;28;812;-71
2022/07/03 03:34:38;;;;;;;;;;;21.90;72.40;;;;;;5052777;28;1211;-71
2022/07/03 03:37:04;;;;;;;;;;;21.90;72.50;;;;;;5053004;28;1073;-70
2022/07/03 03:39:29;;;;;;;;;;;21.80;72.40;;;;;;5051743;28;1140;-71
2022/07/03 03:41:55;;;;;;;;;;;21.90;72.40;;;;;;5051606;28;895;-71
2022/07/03 03:44:20;;;;;;;;;;;21.90;72.40;;;;;;5052615;28;1897;-71
2022/07/03 03:46:46;;;;;;;;;;;21.90;72.50;;;;;;5052913;28;961;-71
2022/07/03 03:49:11;;;;;;;;;;;21.80;72.40;;;;;;5052913;28;918;-71
2022/07/03 03:51:36;;;;;;;;;;;21.90;72.40;;;;;;5052970;28;1116;-70
2022/07/03 03:54:04;;;;;;;;;;;21.90;72.40;;;;;;5052621;28;1013;-71
2022/07/03 03:56:29;;;;;;;;;;;21.90;72.40;;;;;;5051221;28;1207;-71
2022/07/03 03:58:55;;;;;;;;;;;21.90;72.40;;;;;;5052883;28;1017;-72
2022/07/03 04:01:20;;;;;;;;;;;21.90;72.40;;;;;;5052757;28;1037;-71
2022/07/03 04:03:46;;;;;;;;;;;21.90;72.40;;;;;;5051439;28;1909;-71
2022/07/03 04:06:11;;;;;;;;;;;21.90;72.40;;;;;;5052486;28;1205;-70
2022/07/03 04:08:37;;;;;;;;;;;21.90;72.40;;;;;;5052802;28;827;-70
2022/07/03 04:11:02;;;;;;;;;;;21.90;72.50;;;;;;5052327;28;903;-73
2022/07/03 04:13:27;;;;;;;;;;;21.80;72.40;;;;;;5054987;28;887;-73
2022/07/03 04:15:53;;;;;;;;;;;21.90;72.40;;;;;;5045077;28;1190;-70
2022/07/03 04:18:18;;;;;;;;;;;21.90;72.40;;;;;;5036539;28;1154;-71
2022/07/03 04:20:44;;;;;;;;;;;21.90;72.50;;;;;;5036691;28;867;-72
2022/07/03 04:23:09;;;;;;;;;;;21.90;72.40;;;;;;5035338;28;853;-71
2022/07/03 04:25:35;;;;;;;;;;;21.90;72.40;;;;;;5045043;28;1886;-71
2022/07/03 04:28:00;;;;;;;;;;;21.90;72.40;;;;;;5055195;28;1065;-72
2022/07/03 04:30:26;;;;;;;;;;;21.90;72.40;;;;;;5056423;28;1049;-71
2022/07/03 04:32:51;;;;;;;;;;;21.90;72.40;;;;;;5056274;28;997;-71
2022/07/03 04:35:17;;;;;;;;;;;21.80;72.40;;;;;;5054848;28;1321;-71
2022/07/03 04:37:42;;;;;;;;;;;21.90;72.40;;;;;;5056682;28;848;-71
2022/07/03 04:40:08;;;;;;;;;;;21.90;72.40;;;;;;5055814;28;1082;-70
2022/07/03 04:42:33;;;;;;;;;;;21.90;72.40;;;;;;5055979;28;732;-71
2022/07/03 04:44:59;;;;;;;;;;;21.90;72.50;;;;;;5054545;28;1961;-72
2022/07/03 04:47:24;;;;;;;;;;;21.80;73.10;;;;;;5056084;28;901;-70
2022/07/03 04:49:50;;;;;;;;;;;21.90;72.40;;;;;;5056372;28;835;-71
2022/07/03 04:52:17;;;;;;;;;;;21.80;72.40;;;;;;5055898;28;863;-72
2022/07/03 04:54:43;;;;;;;;;;;21.90;72.40;;;;;;5055530;28;1193;-70
2022/07/03 04:57:08;;;;;;;;;;;21.90;72.40;;;;;;5054729;28;1076;-71
2022/07/03 04:59:33;;;;;;;;;;;21.90;72.40;;;;;;5055956;28;832;-71
2022/07/03 05:01:59;;;;;;;;;;;21.90;72.40;;;;;;5055812;28;1058;-71
2022/07/03 05:04:24;;;;;;;;;;;21.90;72.40;;;;;;5055452;28;1970;-71
2022/07/03 05:06:50;;;;;;;;;;;21.90;72.40;;;;;;5055838;28;787;-71
2022/07/03 05:09:15;;;;;;;;;;;21.80;72.40;;;;;;5055731;28;795;-71
2022/07/03 05:11:41;;;;;;;;;;;21.90;72.40;;;;;;5054454;28;906;-71
2022/07/03 05:14:06;;;;;;;;;;;21.90;72.40;;;;;;5054139;28;859;-71
2022/07/03 05:16:32;;;;;;;;;;;21.90;72.40;;;;;;5039953;28;1248;-71
2022/07/03 05:18:57;;;;;;;;;;;21.80;72.40;;;;;;5034393;28;1233;-71
2022/07/03 05:21:23;;;;;;;;;;;21.90;72.40;;;;;;5034274;28;854;-71
2022/07/03 05:23:48;;;;;;;;;;;21.80;72.40;;;;;;5034586;28;1953;-71
2022/07/03 05:26:14;;;;;;;;;;;21.90;72.50;;;;;;5047919;28;1207;-70
2022/07/03 05:28:39;;;;;;;;;;;21.90;72.40;;;;;;5055368;28;890;-71
2022/07/03 05:31:05;;;;;;;;;;;21.80;72.40;;;;;;5054143;28;946;-73
2022/07/03 05:33:30;;;;;;;;;;;21.90;72.40;;;;;;5054000;28;885;-71
2022/07/03 05:35:56;;;;;;;;;;;21.90;72.40;;;;;;5055128;28;1218;-71
2022/07/03 05:41:05;;;;;;;;;;;21.90;72.60;;;;;;5055243;28;657;-71
2022/07/03 05:43:31;;;;;;;;;;;21.90;72.40;;;;;;5054945;28;1951;-71
2022/07/03 05:45:56;;;;;;;;;;;21.80;72.40;;;;;;5054878;28;1258;-71
2022/07/03 05:48:22;;;;;;;;;;;21.80;72.40;;;;;;5054912;28;827;-70
2022/07/03 05:50:47;;;;;;;;;;;21.80;72.40;;;;;;5055079;28;804;-70
2022/07/03 05:53:13;;;;;;;;;;;21.90;72.40;;;;;;5054656;28;954;-71
2022/07/03 05:55:38;;;;;;;;;;;21.90;72.50;;;;;;5054451;28;1274;-71
2022/07/03 05:58:03;;;;;;;;;;;21.90;72.50;;;;;;5054803;28;939;-71
2022/07/03 06:00:29;;;;;;;;;;;21.90;72.50;;;;;;5054795;28;1104;-71
2022/07/03 06:02:54;;;;;;;;;;;21.80;72.40;;;;;;5054675;28;800;-71
2022/07/03 06:05:20;;;;;;;;;;;21.90;72.50;;;;;;5054319;28;1910;-71
2022/07/03 06:07:45;;;;;;;;;;;21.90;72.50;;;;;;5054549;28;923;-72
2022/07/03 06:10:11;;;;;;;;;;;21.80;72.40;;;;;;5053564;28;1023;-71
2022/07/03 06:12:36;;;;;;;;;;;21.90;72.40;;;;;;5054376;28;1013;-71
2022/07/03 06:15:01;;;;;;;;;;;21.80;72.40;;;;;;5050232;28;1219;-71
2022/07/03 06:17:27;;;;;;;;;;;21.90;72.50;;;;;;5034341;28;930;-71
2022/07/03 06:19:52;;;;;;;;;;;21.90;72.40;;;;;;5034429;28;1124;-71
2022/07/03 06:22:18;;;;;;;;;;;21.80;72.40;;;;;;5032961;28;1018;-71
2022/07/03 06:24:43;;;;;;;;;;;21.90;72.40;;;;;;5034554;28;1894;-71
2022/07/03 06:27:09;;;;;;;;;;;21.90;72.50;;;;;;5052998;28;863;-71
2022/07/03 06:29:34;;;;;;;;;;;21.80;72.40;;;;;;5054216;28;894;-71
2022/07/03 06:31:59;;;;;;;;;;;21.90;72.50;;;;;;5054081;28;891;-71
2022/07/03 06:34:25;;;;;;;;;;;21.90;73.20;;;;;;5053796;28;1272;-71
2022/07/03 06:36:50;;;;;;;;;;;21.90;72.40;;;;;;5053710;28;902;-71
2022/07/03 06:39:16;;;;;;;;;;;21.90;72.40;;;;;;5054050;28;819;-71
2022/07/03 06:41:41;;;;;;;;;;;21.80;72.40;;;;;;5052797;28;827;-71
2022/07/03 06:44:07;;;;;;;;;;;21.80;72.40;;;;;;5053714;28;1906;-71
2022/07/03 06:46:32;;;;;;;;;;;21.80;72.30;;;;;;5052634;28;1499;-71
2022/07/03 06:48:58;;;;;;;;;;;21.80;72.40;;;;;;5053868;28;811;-71
2022/07/03 06:51:23;;;;;;;;;;;21.80;72.40;;;;;;5053644;28;966;-71
2022/07/03 06:53:49;;;;;;;;;;;21.80;72.40;;;;;;5053498;28;859;-71
2022/07/03 06:56:14;;;;;;;;;;;21.90;72.40;;;;;;5053986;28;1189;-70
2022/07/03 06:58:39;;;;;;;;;;;21.90;72.50;;;;;;5052314;28;1187;-72
2022/07/03 07:01:05;;;;;;;;;;;21.80;72.40;;;;;;5053614;28;1053;-72
2022/07/03 07:03:30;;;;;;;;;;;21.80;72.40;;;;;;5053379;28;1069;-70
2022/07/03 07:05:56;;;;;;;;;;;21.90;72.40;;;;;;5053141;28;1905;-71
2022/07/03 07:08:21;;;;;;;;;;;21.80;72.40;;;;;;5053582;28;869;-71
2022/07/03 07:10:47;;;;;;;;;;;21.80;72.40;;;;;;5053519;28;756;-70
2022/07/03 07:13:12;;;;;;;;;;;21.90;72.40;;;;;;5053352;28;848;-72
2022/07/03 07:15:37;;;;;;;;;;;21.80;72.40;;;;;;5045109;28;1201;-72
2022/07/03 07:18:03;;;;;;;;;;;21.80;72.40;;;;;;5033136;28;799;-71
2022/07/03 07:20:28;;;;;;;;;;;21.80;72.40;;;;;;5033260;28;1209;-71
2022/07/03 07:22:54;;;;;;;;;;;21.90;72.50;;;;;;5033169;28;919;-71
2022/07/03 07:25:20;;;;;;;;;;;21.80;72.40;;;;;;5039639;28;1890;-71
2022/07/03 07:27:45;;;;;;;;;;;21.90;72.40;;;;;;5053366;28;1039;-70
2022/07/03 07:30:11;;;;;;;;;;;21.90;72.40;;;;;;5053179;28;1001;-72
2022/07/03 07:32:36;;;;;;;;;;;21.80;72.40;;;;;;5053125;28;803;-71
2022/07/03 07:35:02;;;;;;;;;;;21.80;72.40;;;;;;5051584;28;1243;-71
2022/07/03 07:37:27;;;;;;;;;;;21.90;72.50;;;;;;5052860;28;832;-71
2022/07/03 07:39:53;;;;;;;;;;;21.80;72.40;;;;;;5053144;28;931;-71
2022/07/03 07:42:19;;;;;;;;;;;21.80;72.40;;;;;;5053063;28;898;-71
2022/07/03 07:44:44;;;;;;;;;;;21.80;72.40;;;;;;5052575;28;1959;-72
2022/07/03 07:47:10;;;;;;;;;;;21.90;72.40;;;;;;5052361;28;882;-72
2022/07/03 07:49:35;;;;;;;;;;;21.90;72.50;;;;;;5052864;28;957;-72
2022/07/03 07:52:01;;;;;;;;;;;21.90;72.40;;;;;;5052683;28;1056;-71
2022/07/03 07:54:26;;;;;;;;;;;21.90;72.40;;;;;;5052374;28;1189;-72
2022/07/03 07:56:52;;;;;;;;;;;21.80;72.40;;;;;;5051695;28;819;-71
2022/07/03 07:59:17;;;;;;;;;;;21.90;72.40;;;;;;5053030;28;887;-71
2022/07/03 08:07:11;;;;;;;;;;;21.80;72.40;;;;;;5052770;28;718;-71
2022/07/03 08:09:36;;;;;;;;;;;21.80;72.40;;;;;;5052725;28;843;-72
2022/07/03 08:12:02;;;;;;;;;;;21.80;72.40;;;;;;5051616;28;899;-71
2022/07/03 08:14:28;;;;;;;;;;;21.80;72.40;;;;;;5052292;28;1197;-72
2022/07/03 08:16:53;;;;;;;;;;;21.90;72.50;;;;;;5032833;28;1035;-72
2022/07/03 08:19:18;;;;;;;;;;;21.80;72.40;;;;;;5032634;28;1099;-71
2022/07/03 08:21:44;;;;;;;;;;;21.80;72.40;;;;;;5032701;28;851;-72
2022/07/03 08:24:10;;;;;;;;;;;21.90;72.50;;;;;;5032348;28;1902;-72
2022/07/03 08:26:36;;;;;;;;;;;21.80;72.40;;;;;;5049885;28;1209;-71
2022/07/03 08:29:02;;;;;;;;;;;21.80;72.40;;;;;;5052657;28;858;-72
2022/07/03 08:31:27;;;;;;;;;;;21.90;72.50;;;;;;5052412;28;870;-72
2022/07/03 08:33:52;;;;;;;;;;;21.90;72.50;;;;;;5052330;28;799;-72
2022/07/03 08:36:18;;;;;;;;;;;21.80;72.40;;;;;;5052521;28;1176;-72
2022/07/03 08:38:43;;;;;;;;;;;21.90;72.50;;;;;;5051228;28;843;-72
2022/07/03 08:41:09;;;;;;;;;;;21.80;72.40;;;;;;5052611;28;851;-71
2022/07/03 08:43:36;;;;;;;;;;;21.90;72.50;;;;;;5052272;28;819;-69
2022/07/03 08:46:03;;;;;;;;;;;21.90;72.50;;;;;;5050859;28;1214;-71
2022/07/03 08:48:29;;;;;;;;;;;21.90;72.50;;;;;;5052326;28;921;-72
2022/07/03 08:50:55;;;;;;;;;;;21.80;72.40;;;;;;5051272;28;914;-71
2022/07/03 08:53:20;;;;;;;;;;;21.80;72.40;;;;;;5051084;28;1107;-71
2022/07/03 08:55:47;;;;;;;;;;;21.80;72.50;;;;;;5050792;28;1291;-71
2022/07/03 08:58:19;;;;;;;;;;;21.80;72.40;;;;;;5051071;28;1033;-72
2022/07/03 09:00:44;;;;;;;;;;;21.90;72.50;;;;;;5053563;28;815;-71
2022/07/03 09:03:10;;;;;;;;;;;21.80;72.40;;;;;;5055819;28;1017;-72
2022/07/03 09:05:35;;;;;;;;;;;21.90;72.50;;;;;;5055426;28;1918;-71
2022/07/03 09:08:01;;;;;;;;;;;21.80;72.50;;;;;;5054556;28;858;-72
2022/07/03 09:10:27;;;;;;;;;;;21.80;72.40;;;;;;5055811;28;812;-71
2022/07/03 09:12:52;;;;;;;;;;;21.80;72.40;;;;;;5055651;28;800;-71
2022/07/03 09:15:17;;;;;;;;;;;21.90;72.50;;;;;;5048666;28;1217;-70
2022/07/03 09:18:01;;;;;;;;;;;21.80;72.40;;;;;;5035550;28;800;-71
2022/07/03 09:20:34;;;;;;;;;;;21.90;72.50;;;;;;5035615;28;1162;-71
2022/07/03 09:23:19;;;;;;;;;;;21.90;72.50;;;;;;5034316;28;884;-72
2022/07/03 09:26:02;;;;;;;;;;;21.80;72.40;;;;;;5044011;28;1954;-72
2022/07/03 09:28:56;;;;;;;;;;;21.80;72.50;;;;;;5054227;28;838;-72
2022/07/03 09:31:25;;;;;;;;;;;21.90;72.50;;;;;;5050705;28;1546;-72
2022/07/03 09:33:51;;;;;;;;;;;21.80;72.50;;;;;;5055388;28;843;-71
2022/07/03 09:36:17;;;;;;;;;;;21.80;72.50;;;;;;5053922;28;1487;-71
2022/07/03 09:38:43;;;;;;;;;;;21.90;72.50;;;;;;5053917;28;1002;-71
2022/07/03 09:41:08;;;;;;;;;;;21.80;72.40;;;;;;5054008;28;851;-71
2022/07/03 09:43:34;;;;;;;;;;;21.90;72.50;;;;;;5054983;28;867;-71
2022/07/03 09:46:00;;;;;;;;;;;21.80;72.60;;;;;;5054846;28;1890;-71
2022/07/03 09:48:26;;;;;;;;;;;21.90;72.50;;;;;;5054900;28;803;-71
2022/07/03 09:51:08;;;;;;;;;;;21.80;72.50;;;;;;5053712;28;859;-71
2022/07/03 09:54:02;;;;;;;;;;;21.90;72.50;;;;;;5054818;28;775;-71
2022/07/03 09:56:34;;;;;;;;;;;21.80;72.40;;;;;;5049792;28;1369;-72
2022/07/03 09:59:00;;;;;;;;;;;21.90;72.50;;;;;;5053469;28;962;-71
2022/07/03 10:01:26;;;;;;;;;;;21.80;72.50;;;;;;5053517;28;1180;-71
2022/07/03 10:03:51;;;;;;;;;;;21.80;72.40;;;;;;5054492;28;1905;-71
2022/07/03 10:06:17;;;;;;;;;;;21.80;72.40;;;;;;5054603;28;1203;-72
2022/07/03 10:08:42;;;;;;;;;;;21.90;72.50;;;;;;5054570;28;1025;-71
2022/07/03 10:11:08;;;;;;;;;;;21.80;72.50;;;;;;5054215;28;862;-72
2022/07/03 10:13:33;;;;;;;;;;;21.90;72.50;;;;;;5053069;28;1022;-71
2022/07/03 10:15:59;;;;;;;;;;;21.90;72.50;;;;;;5042341;28;1237;-72
2022/07/03 10:18:26;;;;;;;;;;;21.80;73.20;;;;;;5034385;28;1119;-71
2022/07/03 10:20:51;;;;;;;;;;;21.80;72.50;;;;;;5033155;28;1618;-71
2022/07/03 10:23:17;;;;;;;;;;;21.80;72.40;;;;;;5033092;28;1029;-71
2022/07/03 10:25:43;;;;;;;;;;;21.90;72.50;;;;;;5042619;28;1953;-72
2022/07/03 10:28:10;;;;;;;;;;;21.90;72.50;;;;;;5054083;28;914;-71
2022/07/03 10:30:36;;;;;;;;;;;21.80;72.40;;;;;;5052914;28;823;-71
2022/07/03 10:33:01;;;;;;;;;;;21.80;72.40;;;;;;5052992;28;879;-71
2022/07/03 10:35:33;;;;;;;;;;;21.80;72.50;;;;;;5053721;28;1265;-72
2022/07/03 10:38:02;;;;;;;;;;;21.90;72.50;;;;;;5052728;28;861;-71
2022/07/03 10:46:13;;;;;;;;;;;21.90;72.50;;;;;;5032135;28;1195;-71
2022/07/03 10:49:08;;;;;;;;;;;21.80;72.50;;;;;;5053764;28;831;-71
2022/07/03 10:51:48;;;;;;;;;;;21.90;72.50;;;;;;5052954;28;1118;-71
2022/07/03 10:54:17;;;;;;;;;;;21.80;72.50;;;;;;5053611;28;811;-71
2022/07/03 10:56:58;;;;;;;;;;;21.80;72.50;;;;;;5052212;28;908;-71
2022/07/03 10:59:36;;;;;;;;;;;21.90;72.60;;;;;;5053553;28;905;-71
2022/07/03 11:02:33;;;;;;;;;;;21.90;73.30;;;;;;5053577;28;882;-71
2022/07/03 11:04:59;;;;;;;;;;;21.90;72.60;;;;;;5040899;28;1973;-71
2022/07/03 11:07:24;;;;;;;;;;;21.80;72.50;;;;;;5053443;28;926;-71
2022/07/03 11:10:13;;;;;;;;;;;21.90;72.60;;;;;;5053312;28;1005;-71
2022/07/03 11:12:58;;;;;;;;;;;21.80;72.50;;;;;;5045745;28;1236;-71
2022/07/03 11:15:27;;;;;;;;;;;21.90;72.60;;;;;;5045942;28;1282;-71
2022/07/03 11:18:11;;;;;;;;;;;21.90;72.60;;;;;;5033508;28;831;-73
2022/07/03 11:20:42;;;;;;;;;;;21.90;72.50;;;;;;5033421;28;993;-71
2022/07/03 11:23:13;;;;;;;;;;;21.90;72.60;;;;;;5032601;28;779;-71
2022/07/03 11:25:45;;;;;;;;;;;21.90;72.60;;;;;;5042450;28;1902;-71
2022/07/03 11:28:29;;;;;;;;;;;21.80;72.50;;;;;;5053214;28;824;-71
2022/07/03 11:31:16;;;;;;;;;;;21.90;72.60;;;;;;5053099;28;974;-71
2022/07/03 11:33:48;;;;;;;;;;;21.90;72.60;;;;;;5052929;28;894;-71
2022/07/03 11:36:17;;;;;;;;;;;21.90;72.60;;;;;;5051791;28;1248;-71
2022/07/03 11:38:54;;;;;;;;;;;21.80;72.50;;;;;;5053019;28;823;-71
2022/07/03 11:41:19;;;;;;;;;;;21.90;72.60;;;;;;5052914;28;918;-71
2022/07/03 11:43:52;;;;;;;;;;;21.90;72.60;;;;;;5052713;28;1901;-72
2022/07/03 11:46:27;;;;;;;;;;;21.90;72.60;;;;;;5051860;28;1255;-71
2022/07/03 11:49:05;;;;;;;;;;;21.90;72.60;;;;;;5051788;28;815;-71
2022/07/03 11:51:30;;;;;;;;;;;21.80;72.50;;;;;;5052845;28;962;-72
2022/07/03 11:53:56;;;;;;;;;;;21.80;72.50;;;;;;5052729;28;852;-71
2022/07/03 11:56:21;;;;;;;;;;;21.90;72.60;;;;;;5051713;28;1270;-71
2022/07/03 11:58:50;;;;;;;;;;;21.90;72.60;;;;;;5052807;28;850;-71
2022/07/03 12:01:22;;;;;;;;;;;21.80;72.50;;;;;;5052899;28;807;-71
2022/07/03 12:03:51;;;;;;;;;;;21.90;72.60;;;;;;5052408;28;1902;-71
2022/07/03 12:06:17;;;;;;;;;;;21.80;72.50;;;;;;5052767;28;1183;-71
2022/07/03 12:08:46;;;;;;;;;;;21.90;72.60;;;;;;5051664;28;1018;-71
2022/07/03 12:11:12;;;;;;;;;;;21.90;72.60;;;;;;5052881;28;869;-71
2022/07/03 12:13:37;;;;;;;;;;;21.90;72.60;;;;;;5051383;28;839;-71
2022/07/03 12:16:15;;;;;;;;;;;21.80;72.60;;;;;;5040994;28;1208;-71
2022/07/03 12:18:41;;;;;;;;;;;21.90;72.60;;;;;;5032508;28;1165;-71
2022/07/03 12:21:06;;;;;;;;;;;21.90;72.60;;;;;;5032813;28;914;-71
2022/07/03 12:23:39;;;;;;;;;;;21.80;72.50;;;;;;5032632;28;993;-71
2022/07/03 12:26:05;;;;;;;;;;;21.90;72.60;;;;;;5045414;28;1960;-71
2022/07/03 12:28:31;;;;;;;;;;;21.90;72.60;;;;;;5052645;28;1085;-71
2022/07/03 12:30:56;;;;;;;;;;;21.90;72.60;;;;;;5052517;28;891;-71
2022/07/03 12:33:22;;;;;;;;;;;21.90;72.60;;;;;;5051664;28;915;-71
2022/07/03 12:36:01;;;;;;;;;;;21.90;72.60;;;;;;5056067;28;1237;-71
2022/07/03 12:38:29;;;;;;;;;;;21.90;72.60;;;;;;5056458;28;1013;-71
2022/07/03 12:41:21;;;;;;;;;;;21.90;72.60;;;;;;5055190;28;888;-71
2022/07/03 12:43:48;;;;;;;;;;;21.80;72.50;;;;;;5052938;28;1898;-71
2022/07/03 12:46:20;;;;;;;;;;;21.90;72.60;;;;;;5054942;28;1254;-72
2022/07/03 12:48:50;;;;;;;;;;;21.80;72.50;;;;;;5054860;28;974;-72
2022/07/03 12:51:16;;;;;;;;;;;21.90;72.60;;;;;;5055095;28;871;-72
2022/07/03 12:53:41;;;;;;;;;;;21.90;72.60;;;;;;5055973;28;811;-71
2022/07/03 12:56:08;;;;;;;;;;;21.90;72.60;;;;;;5073868;22;3578;-67
2022/07/03 13:01:25;;;;;;;;;;;21.90;72.60;;;;;;5054996;28;692;-67
2022/07/03 13:03:51;;;;;;;;;;;21.80;72.50;;;;;;5055577;28;1918;-67
2022/07/03 13:06:16;;;;;;;;;;;21.80;72.60;;;;;;5055749;28;1223;-67
2022/07/03 13:08:55;;;;;;;;;;;21.90;72.70;;;;;;5055754;28;795;-67
2022/07/03 13:11:27;;;;;;;;;;;21.90;72.60;;;;;;5054579;28;819;-67
2022/07/03 13:13:55;;;;;;;;;;;21.90;72.60;;;;;;5055473;28;850;-67
2022/07/03 13:16:27;;;;;;;;;;;21.90;72.60;;;;;;5055476;28;1352;-67
2022/07/03 13:18:59;;;;;;;;;;;21.90;72.60;;;;;;5055149;28;1486;-67
2022/07/03 13:21:24;;;;;;;;;;;21.80;72.60;;;;;;5054435;28;800;-67
2022/07/03 13:23:49;;;;;;;;;;;21.90;72.60;;;;;;5055195;28;1906;-67
2022/07/03 13:26:15;;;;;;;;;;;21.90;72.60;;;;;;5055332;28;1275;-67
2022/07/03 13:28:40;;;;;;;;;;;21.80;72.60;;;;;;5055642;28;1029;-67
2022/07/03 13:31:06;;;;;;;;;;;21.90;72.60;;;;;;5054077;28;1030;-67
2022/07/03 13:33:31;;;;;;;;;;;21.90;72.60;;;;;;5055059;28;859;-67
2022/07/03 13:35:57;;;;;;;;;;;21.90;72.60;;;;;;5054988;28;1200;-67
2022/07/03 13:38:22;;;;;;;;;;;21.90;72.60;;;;;;5055174;28;815;-67
2022/07/03 13:40:47;;;;;;;;;;;21.90;72.60;;;;;;5055453;28;783;-67
2022/07/03 13:43:13;;;;;;;;;;;21.90;72.60;;;;;;5055131;28;906;-67
2022/07/03 13:45:38;;;;;;;;;;;21.90;72.60;;;;;;5052715;28;1910;-67
2022/07/03 13:48:04;;;;;;;;;;;21.90;72.60;;;;;;5053588;28;1246;-67
2022/07/03 13:50:30;;;;;;;;;;;21.80;72.60;;;;;;5055172;28;937;-67
2022/07/03 13:52:56;;;;;;;;;;;21.90;72.60;;;;;;5053734;28;862;-67
2022/07/03 13:55:21;;;;;;;;;;;21.90;72.60;;;;;;5054350;28;1219;-67
2022/07/03 13:57:46;;;;;;;;;;;21.90;72.60;;;;;;5053770;28;783;-67
2022/07/03 14:00:12;;;;;;;;;;;21.80;72.60;;;;;;5054830;28;796;-67
2022/07/03 14:02:39;;;;;;;;;;;21.90;72.60;;;;;;5054627;28;895;-67
2022/07/03 14:05:05;;;;;;;;;;;21.90;72.60;;;;;;5054300;28;1918;-67
2022/07/03 14:07:30;;;;;;;;;;;21.90;72.70;;;;;;5054570;28;1077;-67
2022/07/03 14:09:56;;;;;;;;;;;21.90;72.60;;;;;;5054524;28;772;-67
2022/07/03 14:12:21;;;;;;;;;;;21.90;72.70;;;;;;5053255;28;939;-67
2022/07/03 14:14:46;;;;;;;;;;;21.90;72.70;;;;;;5054320;28;1118;-67
2022/07/03 14:17:12;;;;;;;;;;;21.90;72.60;;;;;;5054234;28;1212;-67
2022/07/03 14:19:37;;;;;;;;;;;21.90;72.60;;;;;;5054330;28;1138;-67
2022/07/03 14:22:03;;;;;;;;;;;21.90;72.60;;;;;;5054260;28;1049;-67
2022/07/03 14:24:28;;;;;;;;;;;21.90;72.60;;;;;;5053933;28;1963;-67
2022/07/03 14:32:38;;;;;;;;;;;21.90;72.60;;;;;;5049355;28;975;-67
2022/07/03 14:35:04;;;;;;;;;;;21.90;72.70;;;;;;5053860;28;1196;-67
2022/07/03 14:37:30;;;;;;;;;;;21.90;72.70;;;;;;5054367;28;858;-67
2022/07/03 14:39:55;;;;;;;;;;;21.90;72.60;;;;;;5054189;28;791;-67
2022/07/03 14:42:21;;;;;;;;;;;21.80;72.60;;;;;;5053769;28;838;-67
2022/07/03 14:44:46;;;;;;;;;;;21.90;73.40;;;;;;5052593;28;1910;-67
2022/07/03 14:47:12;;;;;;;;;;;21.90;72.60;;;;;;5053819;28;1240;-67
2022/07/03 14:49:37;;;;;;;;;;;21.90;72.60;;;;;;5053941;28;842;-67
2022/07/03 14:52:03;;;;;;;;;;;21.90;73.40;;;;;;5052690;28;873;-67
2022/07/03 14:54:31;;;;;;;;;;;21.90;72.70;;;;;;5053462;28;997;-67
2022/07/03 14:56:57;;;;;;;;;;;21.80;72.60;;;;;;5053371;28;1287;-67
2022/07/03 14:59:43;;;;;;;;;;;21.90;72.60;;;;;;5052414;28;799;-67
2022/07/03 15:02:10;;;;;;;;;;;21.90;72.70;;;;;;5053139;28;964;-67